sensor_id;sensor_type;location;lat;lon;timestamp;pressure;altitude;pressure_sealevel;temperature;humidity
55315;BME280;41619;42.816;23.226;2023-04-05T00:00:28;95074.53;;;0.44;72.27
55315;BME280;41619;42.816;23.226;2023-04-05T00:02:55;95065.66;;;0.44;72.57
55315;BME280;41619;42.816;23.226;2023-04-05T00:05:22;95063.59;;;0.41;72.26
55315;BME280;41619;42.816;23.226;2023-04-05T00:07:57;95063.28;;;0.42;72.01
55315;BME280;41619;42.816;23.226;2023-04-05T00:10:25;95056.81;;;0.43;71.63
55315;BME280;41619;42.816;23.226;2023-04-05T00:12:50;95053.00;;;0.44;72.35
55315;BME280;41619;42.816;23.226;2023-04-05T00:15:16;95058.38;;;0.44;71.99
55315;BME280;41619;42.816;23.226;2023-04-05T00:17:42;95049.03;;;0.42;71.83
55315;BME280;41619;42.816;23.226;2023-04-05T00:20:08;95057.09;;;0.42;72.13
55315;BME280;41619;42.816;23.226;2023-04-05T00:22:35;95054.09;;;0.43;72.16
55315;BME280;41619;42.816;23.226;2023-04-05T00:25:03;95056.81;;;0.43;72.33
55315;BME280;41619;42.816;23.226;2023-04-05T00:27:28;95050.31;;;0.44;72.47
55315;BME280;41619;42.816;23.226;2023-04-05T00:29:54;95051.91;;;0.45;72.48
55315;BME280;41619;42.816;23.226;2023-04-05T00:32:20;95056.97;;;0.47;72.29
55315;BME280;41619;42.816;23.226;2023-04-05T00:34:45;95056.19;;;0.46;72.10
55315;BME280;41619;42.816;23.226;2023-04-05T00:37:11;95056.47;;;0.45;71.90
55315;BME280;41619;42.816;23.226;2023-04-05T00:39:37;95051.91;;;0.45;72.18
55315;BME280;41619;42.816;23.226;2023-04-05T00:42:03;95055.38;;;0.46;72.53
55315;BME280;41619;42.816;23.226;2023-04-05T00:44:29;95052.38;;;0.47;72.31
55315;BME280;41619;42.816;23.226;2023-04-05T00:47:08;95055.06;;;0.47;72.41
55315;BME280;41619;42.816;23.226;2023-04-05T00:49:34;95063.47;;;0.46;72.61
55315;BME280;41619;42.816;23.226;2023-04-05T00:52:03;95059.66;;;0.47;72.42
55315;BME280;41619;42.816;23.226;2023-04-05T00:54:28;95053.97;;;0.48;72.38
55315;BME280;41619;42.816;23.226;2023-04-05T00:56:58;95053.47;;;0.46;72.73
55315;BME280;41619;42.816;23.226;2023-04-05T00:59:27;95058.38;;;0.44;72.49
55315;BME280;41619;42.816;23.226;2023-04-05T01:02:01;95054.59;;;0.45;72.90
55315;BME280;41619;42.816;23.226;2023-04-05T01:04:31;95054.59;;;0.45;72.30
55315;BME280;41619;42.816;23.226;2023-04-05T01:12:20;95067.47;;;0.26;73.13
55315;BME280;41619;42.816;23.226;2023-04-05T01:14:51;95067.16;;;0.27;72.44
55315;BME280;41619;42.816;23.226;2023-04-05T01:17:20;95060.69;;;0.28;72.91
55315;BME280;41619;42.816;23.226;2023-04-05T01:19:53;95069.38;;;0.25;72.64
55315;BME280;41619;42.816;23.226;2023-04-05T01:25:10;95072.38;;;0.24;72.75
55315;BME280;41619;42.816;23.226;2023-04-05T01:28:12;95076.34;;;0.26;72.78
55315;BME280;41619;42.816;23.226;2023-04-05T01:36:30;95083.63;;;0.26;72.86
55315;BME280;41619;42.816;23.226;2023-04-05T01:38:59;95084.13;;;0.28;73.10
55315;BME280;41619;42.816;23.226;2023-04-05T01:41:25;95093.28;;;0.27;72.80
55315;BME280;41619;42.816;23.226;2023-04-05T01:43:51;95099.28;;;0.24;72.85
55315;BME280;41619;42.816;23.226;2023-04-05T01:46:16;95094.09;;;0.27;72.78
55315;BME280;41619;42.816;23.226;2023-04-05T01:48:42;95092.66;;;0.30;73.27
55315;BME280;41619;42.816;23.226;2023-04-05T01:51:07;95086.81;;;0.28;73.33
55315;BME280;41619;42.816;23.226;2023-04-05T01:53:33;95088.09;;;0.30;73.16
55315;BME280;41619;42.816;23.226;2023-04-05T01:56:01;95082.06;;;0.34;73.32
55315;BME280;41619;42.816;23.226;2023-04-05T01:58:27;95085.06;;;0.32;73.17
55315;BME280;41619;42.816;23.226;2023-04-05T02:00:54;95083.97;;;0.33;72.88
55315;BME280;41619;42.816;23.226;2023-04-05T02:03:20;95086.03;;;0.36;73.11
55315;BME280;41619;42.816;23.226;2023-04-05T02:05:46;95081.16;;;0.38;72.57
55315;BME280;41619;42.816;23.226;2023-04-05T02:08:11;95086.25;;;0.40;73.14
55315;BME280;41619;42.816;23.226;2023-04-05T02:10:38;95087.84;;;0.41;72.61
55315;BME280;41619;42.816;23.226;2023-04-05T02:13:05;95085.94;;;0.41;72.74
55315;BME280;41619;42.816;23.226;2023-04-05T02:15:30;95085.13;;;0.41;72.33
55315;BME280;41619;42.816;23.226;2023-04-05T02:17:57;95087.53;;;0.42;72.74
55315;BME280;41619;42.816;23.226;2023-04-05T02:20:26;95082.94;;;0.43;72.31
55315;BME280;41619;42.816;23.226;2023-04-05T02:22:51;95086.91;;;0.45;72.73
55315;BME280;41619;42.816;23.226;2023-04-05T02:25:17;95085.78;;;0.46;72.38
55315;BME280;41619;42.816;23.226;2023-04-05T02:27:43;95087.38;;;0.47;72.38
55315;BME280;41619;42.816;23.226;2023-04-05T02:30:09;95088.47;;;0.46;72.95
55315;BME280;41619;42.816;23.226;2023-04-05T02:32:34;95085.31;;;0.44;72.76
55315;BME280;41619;42.816;23.226;2023-04-05T02:35:00;95092.91;;;0.42;72.61
55315;BME280;41619;42.816;23.226;2023-04-05T02:37:26;95092.91;;;0.42;72.91
55315;BME280;41619;42.816;23.226;2023-04-05T02:39:52;95095.59;;;0.42;72.60
55315;BME280;41619;42.816;23.226;2023-04-05T02:42:18;95081.34;;;0.42;72.23
55315;BME280;41619;42.816;23.226;2023-04-05T02:44:43;95088.31;;;0.43;72.70
55315;BME280;41619;42.816;23.226;2023-04-05T02:47:09;95093.22;;;0.41;73.13
55315;BME280;41619;42.816;23.226;2023-04-05T02:49:34;95092.59;;;0.44;72.53
55315;BME280;41619;42.816;23.226;2023-04-05T02:51:59;95086.72;;;0.42;72.96
55315;BME280;41619;42.816;23.226;2023-04-05T02:54:25;95088.31;;;0.43;72.83
55315;BME280;41619;42.816;23.226;2023-04-05T02:56:50;95098.59;;;0.41;72.79
55315;BME280;41619;42.816;23.226;2023-04-05T02:59:18;95089.09;;;0.43;73.10
55315;BME280;41619;42.816;23.226;2023-04-05T03:01:44;95093.38;;;0.44;72.87
55315;BME280;41619;42.816;23.226;2023-04-05T03:04:10;95092.59;;;0.44;72.72
55315;BME280;41619;42.816;23.226;2023-04-05T03:06:36;95084.03;;;0.42;72.32
55315;BME280;41619;42.816;23.226;2023-04-05T03:09:03;95088.13;;;0.39;72.86
55315;BME280;41619;42.816;23.226;2023-04-05T03:11:28;95084.94;;;0.37;72.57
55315;BME280;41619;42.816;23.226;2023-04-05T03:13:54;95083.56;;;0.40;72.93
55315;BME280;41619;42.816;23.226;2023-04-05T03:16:19;95087.63;;;0.37;73.09
55315;BME280;41619;42.816;23.226;2023-04-05T03:18:45;95089.53;;;0.37;73.00
55315;BME280;41619;42.816;23.226;2023-04-05T03:21:11;95088.13;;;0.39;73.05
55315;BME280;41619;42.816;23.226;2023-04-05T03:23:36;95085.13;;;0.41;72.34
55315;BME280;41619;42.816;23.226;2023-04-05T03:26:03;95075.78;;;0.38;72.30
55315;BME280;41619;42.816;23.226;2023-04-05T03:28:29;95083.56;;;0.40;72.66
55315;BME280;41619;42.816;23.226;2023-04-05T03:30:57;95081.16;;;0.38;72.71
55315;BME280;41619;42.816;23.226;2023-04-05T03:33:22;95067.72;;;0.38;72.55
55315;BME280;41619;42.816;23.226;2023-04-05T03:35:48;95076.59;;;0.39;72.27
55315;BME280;41619;42.816;23.226;2023-04-05T03:38:13;95082.25;;;0.37;72.90
55315;BME280;41619;42.816;23.226;2023-04-05T03:40:39;95088.72;;;0.36;72.54
55315;BME280;41619;42.816;23.226;2023-04-05T03:43:04;95087.63;;;0.37;72.81
55315;BME280;41619;42.816;23.226;2023-04-05T03:45:30;95090.31;;;0.37;72.76
55315;BME280;41619;42.816;23.226;2023-04-05T03:47:57;95089.25;;;0.38;72.23
55315;BME280;41619;42.816;23.226;2023-04-05T03:50:24;95087.63;;;0.37;72.57
55315;BME280;41619;42.816;23.226;2023-04-05T03:52:51;95090.47;;;0.32;72.16
55315;BME280;41619;42.816;23.226;2023-04-05T03:55:16;95087.94;;;0.36;72.64
55315;BME280;41619;42.816;23.226;2023-04-05T03:57:42;95097.59;;;0.37;72.42
55315;BME280;41619;42.816;23.226;2023-04-05T04:00:09;95095.22;;;0.35;71.99
55315;BME280;41619;42.816;23.226;2023-04-05T04:02:46;95103.31;;;0.35;72.24
55315;BME280;41619;42.816;23.226;2023-04-05T04:05:12;95105.50;;;0.33;72.59
55315;BME280;41619;42.816;23.226;2023-04-05T04:07:39;95101.72;;;0.34;72.16
55315;BME280;41619;42.816;23.226;2023-04-05T04:10:06;95105.69;;;0.37;72.38
55315;BME280;41619;42.816;23.226;2023-04-05T04:12:32;95115.38;;;0.38;72.05
55315;BME280;41619;42.816;23.226;2023-04-05T04:14:57;95118.34;;;0.36;71.99
55315;BME280;41619;42.816;23.226;2023-04-05T04:17:30;95117.69;;;0.30;72.17
55315;BME280;41619;42.816;23.226;2023-04-05T04:19:56;95121.50;;;0.29;72.21
55315;BME280;41619;42.816;23.226;2023-04-05T04:22:23;95122.28;;;0.30;72.58
55315;BME280;41619;42.816;23.226;2023-04-05T04:24:54;95123.25;;;0.34;72.27
55315;BME280;41619;42.816;23.226;2023-04-05T04:27:20;95131.00;;;0.36;72.46
55315;BME280;41619;42.816;23.226;2023-04-05T04:29:47;95129.25;;;0.31;72.36
55315;BME280;41619;42.816;23.226;2023-04-05T04:32:14;95122.28;;;0.30;71.78
55315;BME280;41619;42.816;23.226;2023-04-05T04:34:43;95127.84;;;0.34;71.83
55315;BME280;41619;42.816;23.226;2023-04-05T04:37:14;95125.16;;;0.34;72.00
55315;BME280;41619;42.816;23.226;2023-04-05T04:39:45;95123.25;;;0.34;72.15
55315;BME280;41619;42.816;23.226;2023-04-05T04:42:11;95121.03;;;0.36;72.17
55315;BME280;41619;42.816;23.226;2023-04-05T04:44:37;95112.06;;;0.41;71.80
55315;BME280;41619;42.816;23.226;2023-04-05T04:47:03;95125.84;;;0.39;72.03
55315;BME280;41619;42.816;23.226;2023-04-05T04:49:37;95124.41;;;0.42;71.67
55315;BME280;41619;42.816;23.226;2023-04-05T04:52:03;95124.91;;;0.44;71.19
55315;BME280;41619;42.816;23.226;2023-04-05T04:54:29;95126.50;;;0.45;71.78
55315;BME280;41619;42.816;23.226;2023-04-05T04:56:54;95130.59;;;0.42;71.36
55315;BME280;41619;42.816;23.226;2023-04-05T04:59:21;95129.63;;;0.38;71.64
55315;BME280;41619;42.816;23.226;2023-04-05T05:01:46;95122.03;;;0.40;71.67
55315;BME280;41619;42.816;23.226;2023-04-05T05:04:12;95134.56;;;0.45;71.58
55315;BME280;41619;42.816;23.226;2023-04-05T05:06:37;95123.97;;;0.48;71.31
55315;BME280;41619;42.816;23.226;2023-04-05T05:09:03;95133.22;;;0.56;71.68
55315;BME280;41619;42.816;23.226;2023-04-05T05:11:28;95127.50;;;0.57;71.66
55315;BME280;41619;42.816;23.226;2023-04-05T05:13:54;95128.94;;;0.64;71.68
55315;BME280;41619;42.816;23.226;2023-04-05T05:16:19;95128.19;;;0.72;71.90
55315;BME280;41619;42.816;23.226;2023-04-05T05:18:49;95124.44;;;0.81;71.05
55315;BME280;41619;42.816;23.226;2023-04-05T05:21:15;95122.72;;;0.85;71.29
55315;BME280;41619;42.816;23.226;2023-04-05T05:23:40;95126.66;;;0.88;70.80
55315;BME280;41619;42.816;23.226;2023-04-05T05:26:06;95127.78;;;0.87;70.94
55315;BME280;41619;42.816;23.226;2023-04-05T05:28:31;95136.66;;;0.87;71.18
55315;BME280;41619;42.816;23.226;2023-04-05T05:30:57;95145.22;;;0.89;70.54
55315;BME280;41619;42.816;23.226;2023-04-05T05:33:22;95137.34;;;0.93;70.74
55315;BME280;41619;42.816;23.226;2023-04-05T05:35:48;95140.16;;;0.88;70.44
55315;BME280;41619;42.816;23.226;2023-04-05T05:38:15;95135.53;;;0.88;70.51
55315;BME280;41619;42.816;23.226;2023-04-05T05:40:41;95136.03;;;0.90;70.93
55315;BME280;41619;42.816;23.226;2023-04-05T05:43:06;95137.63;;;0.91;70.36
55315;BME280;41619;42.816;23.226;2023-04-05T05:45:33;95130.69;;;0.99;70.23
55315;BME280;41619;42.816;23.226;2023-04-05T05:47:58;95130.84;;;1.03;70.09
55315;BME280;41619;42.816;23.226;2023-04-05T05:50:23;95133.41;;;1.08;70.04
55315;BME280;41619;42.816;23.226;2023-04-05T05:52:49;95134.66;;;1.10;69.75
55315;BME280;41619;42.816;23.226;2023-04-05T05:55:14;95132.47;;;1.12;69.45
55315;BME280;41619;42.816;23.226;2023-04-05T05:57:40;95142.47;;;1.12;69.46
55315;BME280;41619;42.816;23.226;2023-04-05T06:00:06;95134.22;;;1.17;69.30
55315;BME280;41619;42.816;23.226;2023-04-05T06:02:35;95142.16;;;1.22;69.17
55315;BME280;41619;42.816;23.226;2023-04-05T06:05:01;95143.75;;;1.23;68.63
55315;BME280;41619;42.816;23.226;2023-04-05T06:07:27;95141.22;;;1.27;69.09
55315;BME280;41619;42.816;23.226;2023-04-05T06:09:52;95148.06;;;1.33;69.08
55315;BME280;41619;42.816;23.226;2023-04-05T06:12:20;95149.66;;;1.34;68.62
55315;BME280;41619;42.816;23.226;2023-04-05T06:14:45;95136.66;;;1.36;68.08
55315;BME280;41619;42.816;23.226;2023-04-05T06:17:11;95143.63;;;1.37;68.09
55315;BME280;41619;42.816;23.226;2023-04-05T06:19:36;95149.66;;;1.42;67.99
55315;BME280;41619;42.816;23.226;2023-04-05T06:22:02;95151.41;;;1.47;67.99
55315;BME280;41619;42.816;23.226;2023-04-05T06:24:27;95150.81;;;1.59;68.19
55315;BME280;41619;42.816;23.226;2023-04-05T06:26:58;95153.38;;;1.81;67.25
55315;BME280;41619;42.816;23.226;2023-04-05T06:29:24;95152.09;;;2.04;67.18
55315;BME280;41619;42.816;23.226;2023-04-05T06:31:49;95161.16;;;2.26;67.05
55315;BME280;41619;42.816;23.226;2023-04-05T06:34:15;95154.47;;;2.32;65.99
55315;BME280;41619;42.816;23.226;2023-04-05T06:36:40;95161.59;;;2.36;65.81
55315;BME280;41619;42.816;23.226;2023-04-05T06:39:06;95157.63;;;2.34;65.58
55315;BME280;41619;42.816;23.226;2023-04-05T06:41:32;95160.66;;;2.32;65.84
55315;BME280;41619;42.816;23.226;2023-04-05T06:43:57;95168.75;;;2.32;65.24
55315;BME280;41619;42.816;23.226;2023-04-05T06:46:23;95168.13;;;2.27;65.70
55315;BME280;41619;42.816;23.226;2023-04-05T06:48:48;95177.19;;;2.22;65.81
55315;BME280;41619;42.816;23.226;2023-04-05T06:51:14;95172.75;;;2.09;65.28
55315;BME280;41619;42.816;23.226;2023-04-05T06:53:40;95181.50;;;2.06;65.44
55315;BME280;41619;42.816;23.226;2023-04-05T06:56:06;95179.59;;;2.06;65.91
55315;BME280;41619;42.816;23.226;2023-04-05T06:58:31;95185.78;;;2.07;65.76
55315;BME280;41619;42.816;23.226;2023-04-05T07:00:59;95190.69;;;2.05;65.30
55315;BME280;41619;42.816;23.226;2023-04-05T07:03:24;95186.41;;;1.95;65.44
55315;BME280;41619;42.816;23.226;2023-04-05T07:05:50;95198.63;;;1.93;65.52
55315;BME280;41619;42.816;23.226;2023-04-05T07:08:18;95202.09;;;1.85;65.26
55315;BME280;41619;42.816;23.226;2023-04-05T07:10:44;95208.28;;;1.85;65.14
55315;BME280;41619;42.816;23.226;2023-04-05T07:13:10;95200.03;;;1.81;65.73
55315;BME280;41619;42.816;23.226;2023-04-05T07:15:35;95200.81;;;1.82;65.23
55315;BME280;41619;42.816;23.226;2023-04-05T07:18:00;95215.91;;;1.83;65.48
55315;BME280;41619;42.816;23.226;2023-04-05T07:20:26;95210.97;;;1.76;65.22
55315;BME280;41619;42.816;23.226;2023-04-05T07:22:51;95213.69;;;1.76;65.58
55315;BME280;41619;42.816;23.226;2023-04-05T07:25:16;95221.44;;;1.78;65.28
55315;BME280;41619;42.816;23.226;2023-04-05T07:27:42;95217.16;;;1.77;65.64
55315;BME280;41619;42.816;23.226;2023-04-05T07:30:08;95217.97;;;1.77;65.89
55315;BME280;41619;42.816;23.226;2023-04-05T07:32:33;95219.50;;;1.61;65.27
55315;BME280;41619;42.816;23.226;2023-04-05T07:34:59;95227.91;;;1.60;66.18
55315;BME280;41619;42.816;23.226;2023-04-05T07:37:24;95228.69;;;1.51;65.84
55315;BME280;41619;42.816;23.226;2023-04-05T07:39:51;95230.41;;;1.47;66.58
55315;BME280;41619;42.816;23.226;2023-04-05T07:42:17;95227.44;;;1.49;66.92
55315;BME280;41619;42.816;23.226;2023-04-05T07:44:45;95233.63;;;1.49;66.64
55315;BME280;41619;42.816;23.226;2023-04-05T07:47:11;95239.28;;;1.48;66.12
55315;BME280;41619;42.816;23.226;2023-04-05T07:49:36;95240.13;;;1.57;66.44
55315;BME280;41619;42.816;23.226;2023-04-05T07:52:02;95238.53;;;1.56;66.20
55315;BME280;41619;42.816;23.226;2023-04-05T07:54:30;95233.00;;;1.52;66.07
55315;BME280;41619;42.816;23.226;2023-04-05T07:56:55;95241.25;;;1.56;66.13
55315;BME280;41619;42.816;23.226;2023-04-05T07:59:22;95243.47;;;1.63;65.45
55315;BME280;41619;42.816;23.226;2023-04-05T08:01:48;95248.88;;;1.63;65.50
55315;BME280;41619;42.816;23.226;2023-04-05T08:04:13;95251.59;;;1.71;65.79
55315;BME280;41619;42.816;23.226;2023-04-05T08:06:38;95251.75;;;1.75;65.40
55315;BME280;41619;42.816;23.226;2023-04-05T08:09:04;95254.94;;;1.77;65.54
55315;BME280;41619;42.816;23.226;2023-04-05T08:11:30;95250.97;;;1.83;65.07
55315;BME280;41619;42.816;23.226;2023-04-05T08:13:56;95255.41;;;1.79;64.51
55315;BME280;41619;42.816;23.226;2023-04-05T08:16:22;95251.59;;;1.71;64.70
55315;BME280;41619;42.816;23.226;2023-04-05T08:18:47;95253.66;;;1.74;64.94
55315;BME280;41619;42.816;23.226;2023-04-05T08:21:13;95269.69;;;1.71;64.73
55315;BME280;41619;42.816;23.226;2023-04-05T08:23:38;95268.75;;;1.75;64.64
55315;BME280;41619;42.816;23.226;2023-04-05T08:26:04;95275.75;;;1.85;64.38
55315;BME280;41619;42.816;23.226;2023-04-05T08:28:29;95284.19;;;1.92;64.13
55315;BME280;41619;42.816;23.226;2023-04-05T08:30:55;95272.13;;;1.98;64.10
55315;BME280;41619;42.816;23.226;2023-04-05T08:33:22;95278.81;;;2.09;64.39
55315;BME280;41619;42.816;23.226;2023-04-05T08:35:47;95279.63;;;2.19;63.88
55315;BME280;41619;42.816;23.226;2023-04-05T08:38:13;95274.69;;;2.21;63.84
55315;BME280;41619;42.816;23.226;2023-04-05T08:45:46;95277.91;;;2.31;63.55
55315;BME280;41619;42.816;23.226;2023-04-05T08:48:13;95287.91;;;2.31;63.35
55315;BME280;41619;42.816;23.226;2023-04-05T08:50:39;95277.09;;;2.31;63.73
55315;BME280;41619;42.816;23.226;2023-04-05T08:53:06;95276.31;;;2.30;63.57
55315;BME280;41619;42.816;23.226;2023-04-05T08:55:31;95276.28;;;2.22;63.62
55315;BME280;41619;42.816;23.226;2023-04-05T08:57:58;95287.28;;;2.25;63.83
55315;BME280;41619;42.816;23.226;2023-04-05T09:00:26;95283.63;;;2.30;63.51
55315;BME280;41619;42.816;23.226;2023-04-05T09:02:54;95288.06;;;2.34;63.20
55315;BME280;41619;42.816;23.226;2023-04-05T09:05:21;95286.50;;;2.42;63.42
55315;BME280;41619;42.816;23.226;2023-04-05T09:07:48;95294.41;;;2.56;63.60
55315;BME280;41619;42.816;23.226;2023-04-05T09:10:17;95293.31;;;2.65;62.84
55315;BME280;41619;42.816;23.226;2023-04-05T09:12:43;95297.44;;;2.71;62.68
55315;BME280;41619;42.816;23.226;2023-04-05T09:15:10;95296.81;;;2.83;62.97
55315;BME280;41619;42.816;23.226;2023-04-05T09:17:38;95295.03;;;3.04;62.76
55315;BME280;41619;42.816;23.226;2023-04-05T09:20:06;95292.28;;;3.22;61.84
55315;BME280;41619;42.816;23.226;2023-04-05T09:22:44;95300.22;;;3.27;61.77
55315;BME280;41619;42.816;23.226;2023-04-05T09:25:11;95293.19;;;3.34;61.71
55315;BME280;41619;42.816;23.226;2023-04-05T09:27:53;95294.91;;;3.48;61.31
55315;BME280;41619;42.816;23.226;2023-04-05T09:30:21;95294.31;;;3.72;61.32
55315;BME280;41619;42.816;23.226;2023-04-05T09:32:46;95290.13;;;3.91;61.00
55315;BME280;41619;42.816;23.226;2023-04-05T09:35:18;95300.13;;;4.20;60.69
55315;BME280;41619;42.816;23.226;2023-04-05T09:38:03;95285.47;;;4.63;60.18
55315;BME280;41619;42.816;23.226;2023-04-05T09:40:45;95290.44;;;4.82;58.97
55315;BME280;41619;42.816;23.226;2023-04-05T09:43:13;95294.59;;;4.79;58.98
55315;BME280;41619;42.816;23.226;2023-04-05T09:45:57;95280.00;;;4.72;59.07
55315;BME280;41619;42.816;23.226;2023-04-05T09:48:46;95276.38;;;4.68;58.75
55315;BME280;41619;42.816;23.226;2023-04-05T09:51:13;95278.75;;;4.69;58.92
55315;BME280;41619;42.816;23.226;2023-04-05T09:53:58;95281.47;;;4.48;58.77
55315;BME280;41619;42.816;23.226;2023-04-05T09:56:25;95291.91;;;4.38;59.15
55315;BME280;41619;42.816;23.226;2023-04-05T09:58:51;95289.84;;;4.35;59.54
55315;BME280;41619;42.816;23.226;2023-04-05T10:01:18;95292.09;;;4.33;59.50
55315;BME280;41619;42.816;23.226;2023-04-05T10:03:47;95295.94;;;4.32;59.26
55315;BME280;41619;42.816;23.226;2023-04-05T10:06:15;95285.59;;;4.25;59.38
55315;BME280;41619;42.816;23.226;2023-04-05T10:08:41;95288.66;;;4.23;58.76
55315;BME280;41619;42.816;23.226;2023-04-05T10:11:07;95281.41;;;4.07;58.99
55315;BME280;41619;42.816;23.226;2023-04-05T10:13:35;95281.75;;;4.05;59.15
55315;BME280;41619;42.816;23.226;2023-04-05T10:16:05;95279.81;;;4.06;58.96
55315;BME280;41619;42.816;23.226;2023-04-05T10:18:39;95287.34;;;4.00;59.10
55315;BME280;41619;42.816;23.226;2023-04-05T10:21:10;95282.28;;;3.99;59.29
55315;BME280;41619;42.816;23.226;2023-04-05T10:23:37;95272.88;;;3.96;59.29
55315;BME280;41619;42.816;23.226;2023-04-05T10:26:13;95283.75;;;3.87;59.08
55315;BME280;41619;42.816;23.226;2023-04-05T10:28:42;95287.31;;;3.79;59.07
55315;BME280;41619;42.816;23.226;2023-04-05T10:34:04;95285.31;;;3.59;58.92
55315;BME280;41619;42.816;23.226;2023-04-05T10:36:42;95289.00;;;3.54;59.13
55315;BME280;41619;42.816;23.226;2023-04-05T10:39:16;95289.00;;;3.54;59.04
55315;BME280;41619;42.816;23.226;2023-04-05T10:41:47;95280.06;;;3.62;59.19
55315;BME280;41619;42.816;23.226;2023-04-05T10:44:13;95286.38;;;3.75;58.69
55315;BME280;41619;42.816;23.226;2023-04-05T10:46:40;95286.63;;;3.91;58.27
55315;BME280;41619;42.816;23.226;2023-04-05T10:49:19;95287.44;;;3.83;58.16
55315;BME280;41619;42.816;23.226;2023-04-05T10:51:47;95284.38;;;3.93;58.03
55315;BME280;41619;42.816;23.226;2023-04-05T10:54:13;95287.94;;;4.06;57.67
55315;BME280;41619;42.816;23.226;2023-04-05T10:56:42;95279.31;;;4.12;57.35
55315;BME280;41619;42.816;23.226;2023-04-05T10:59:09;95284.31;;;4.02;57.24
55315;BME280;41619;42.816;23.226;2023-04-05T11:01:36;95292.44;;;4.02;57.79
55315;BME280;41619;42.816;23.226;2023-04-05T11:04:15;95284.91;;;4.07;57.94
55315;BME280;41619;42.816;23.226;2023-04-05T11:06:41;95283.19;;;4.03;57.64
55315;BME280;41619;42.816;23.226;2023-04-05T11:09:18;95284.09;;;4.15;57.69
55315;BME280;41619;42.816;23.226;2023-04-05T11:11:48;95282.25;;;4.28;57.58
55315;BME280;41619;42.816;23.226;2023-04-05T11:14:22;95291.91;;;4.38;57.51
55315;BME280;41619;42.816;23.226;2023-04-05T11:16:51;95294.50;;;4.55;57.30
55315;BME280;41619;42.816;23.226;2023-04-05T11:19:18;95282.44;;;4.65;56.75
55315;BME280;41619;42.816;23.226;2023-04-05T11:21:44;95288.16;;;4.72;56.87
55315;BME280;41619;42.816;23.226;2023-04-05T11:24:11;95296.47;;;4.88;56.68
55315;BME280;41619;42.816;23.226;2023-04-05T11:29:05;95295.09;;;5.14;55.80
55315;BME280;41619;42.816;23.226;2023-04-05T11:31:31;95292.13;;;5.07;56.00
55315;BME280;41619;42.816;23.226;2023-04-05T11:33:58;95281.53;;;5.14;55.18
55315;BME280;41619;42.816;23.226;2023-04-05T11:36:42;95291.28;;;5.28;55.55
55315;BME280;41619;42.816;23.226;2023-04-05T11:42:02;95284.25;;;5.72;54.93
55315;BME280;41619;42.816;23.226;2023-04-05T11:44:48;95288.34;;;5.90;53.99
55315;BME280;41619;42.816;23.226;2023-04-05T11:47:17;95285.91;;;5.97;53.64
55315;BME280;41619;42.816;23.226;2023-04-05T11:49:48;95290.41;;;5.93;53.17
55315;BME280;41619;42.816;23.226;2023-04-05T11:52:15;95288.16;;;5.95;53.17
55315;BME280;41619;42.816;23.226;2023-04-05T11:54:41;95287.94;;;6.00;52.90
55315;BME280;41619;42.816;23.226;2023-04-05T11:57:21;95285.91;;;5.97;53.25
55315;BME280;41619;42.816;23.226;2023-04-05T11:59:49;95294.56;;;5.78;53.41
55315;BME280;41619;42.816;23.226;2023-04-05T12:02:16;95299.19;;;5.66;52.65
55315;BME280;41619;42.816;23.226;2023-04-05T12:04:41;95296.25;;;5.59;53.56
55315;BME280;41619;42.816;23.226;2023-04-05T12:07:10;95308.97;;;5.46;53.18
55315;BME280;41619;42.816;23.226;2023-04-05T12:09:55;95299.72;;;5.47;52.89
55315;BME280;41619;42.816;23.226;2023-04-05T12:12:20;95307.13;;;5.38;53.07
55315;BME280;41619;42.816;23.226;2023-04-05T12:14:46;95311.75;;;5.25;53.69
55315;BME280;41619;42.816;23.226;2023-04-05T12:17:11;95312.03;;;5.11;53.51
55315;BME280;41619;42.816;23.226;2023-04-05T12:19:37;95315.47;;;5.21;53.89
55315;BME280;41619;42.816;23.226;2023-04-05T12:22:02;95312.84;;;5.12;53.44
55315;BME280;41619;42.816;23.226;2023-04-05T12:24:28;95314.34;;;5.01;53.91
55315;BME280;41619;42.816;23.226;2023-04-05T12:26:53;95310.06;;;5.00;54.19
55315;BME280;41619;42.816;23.226;2023-04-05T12:29:19;95297.16;;;4.97;53.95
55315;BME280;41619;42.816;23.226;2023-04-05T12:31:45;95309.72;;;5.01;53.56
55315;BME280;41619;42.816;23.226;2023-04-05T12:34:12;95296.88;;;5.10;53.71
55315;BME280;41619;42.816;23.226;2023-04-05T12:36:38;95294.41;;;5.05;53.74
55315;BME280;41619;42.816;23.226;2023-04-05T12:39:08;95303.81;;;4.87;54.20
55315;BME280;41619;42.816;23.226;2023-04-05T12:41:34;95298.84;;;4.89;53.82
55315;BME280;41619;42.816;23.226;2023-04-05T12:44:05;95299.75;;;4.93;53.66
55315;BME280;41619;42.816;23.226;2023-04-05T12:46:44;95303.72;;;4.96;54.03
55315;BME280;41619;42.816;23.226;2023-04-05T12:49:18;95311.34;;;5.02;53.92
55315;BME280;41619;42.816;23.226;2023-04-05T12:51:45;95310.41;;;4.98;53.82
55315;BME280;41619;42.816;23.226;2023-04-05T12:54:13;95301.56;;;4.89;53.62
55315;BME280;41619;42.816;23.226;2023-04-05T12:56:40;95303.59;;;4.92;54.20
55315;BME280;41619;42.816;23.226;2023-04-05T12:59:06;95312.19;;;4.94;53.91
55315;BME280;41619;42.816;23.226;2023-04-05T13:01:32;95308.47;;;4.99;54.12
55315;BME280;41619;42.816;23.226;2023-04-05T13:03:58;95308.94;;;5.01;53.80
55315;BME280;41619;42.816;23.226;2023-04-05T13:06:25;95316.16;;;4.97;53.76
55315;BME280;41619;42.816;23.226;2023-04-05T13:08:51;95319.00;;;4.79;53.50
55315;BME280;41619;42.816;23.226;2023-04-05T13:11:16;95311.94;;;4.87;54.15
55315;BME280;41619;42.816;23.226;2023-04-05T13:13:42;95316.22;;;5.09;53.74
55315;BME280;41619;42.816;23.226;2023-04-05T13:16:07;95321.47;;;5.26;53.29
55315;BME280;41619;42.816;23.226;2023-04-05T13:18:33;95312.94;;;5.03;52.93
55315;BME280;41619;42.816;23.226;2023-04-05T13:20:58;95323.50;;;4.96;52.75
55315;BME280;41619;42.816;23.226;2023-04-05T13:23:23;95322.91;;;4.91;53.00
55315;BME280;41619;42.816;23.226;2023-04-05T13:25:49;95328.00;;;4.92;53.59
55315;BME280;41619;42.816;23.226;2023-04-05T13:28:14;95323.06;;;4.73;53.38